RYR48DW EIDW-LIMC
Flight info
| Callsign | RYR48DW |
|---|---|
| Flight time | N/A |
| Altitude | 33000 |
| Route | ENDEQ3J ENDEQ Q36 EPOXI L15 PIXUP/N0442F370 L15 FINMA DCT CHT DCT ITVIP DCT KONAN DCT KOK UL607 FERDI DCT REMBA DCT RITAX DCT SUTAL DCT GTQ DCT DEVDI DCT RIPUS DCT GERSA DCT SOSON DCT DEGAD DCT BASGO/N0399F290 Z424 AKASU/N0339F190 Z424 RIXUV |
| Aircraft | B38M/M-SDE1FGHILORVWXY/HB1 |
Departure
| Time | 2026-04-30 13:55 |
|---|---|
| Airport | Dublin Airport (EIDW) |
Arrival
| Time | N/A |
|---|---|
| Airport | Milan Malpensa International Airport (LIMC) |
| Time | Latitude | Longitude | Altitude | Speed | Heading |
|---|---|---|---|---|---|
| 2026-04-30 13:32 | 53.43106 | -6.24894 | 213 ft | 0 kts | 185° |
| 2026-04-30 13:44 | 53.43127 | -6.24890 | 214 ft | 4 kts | 191° |
| 2026-04-30 13:44 | 53.43153 | -6.24879 | 216 ft | 4 kts | 200° |
| 2026-04-30 13:45 | 53.43196 | -6.24830 | 213 ft | 4 kts | 238° |
| 2026-04-30 13:45 | 53.43204 | -6.24795 | 218 ft | 4 kts | 262° |
| 2026-04-30 13:45 | 53.43204 | -6.24762 | 213 ft | 0 kts | 275° |
| 2026-04-30 13:46 | 53.43204 | -6.24763 | 213 ft | 0 kts | 275° |
| 2026-04-30 13:47 | 53.43204 | -6.24765 | 213 ft | 1 kts | 275° |
| 2026-04-30 13:47 | 53.43206 | -6.24801 | 213 ft | 5 kts | 275° |
| 2026-04-30 13:48 | 53.43209 | -6.24868 | 213 ft | 7 kts | 275° |
| 2026-04-30 13:48 | 53.43215 | -6.24964 | 221 ft | 9 kts | 276° |
| 2026-04-30 13:48 | 53.43222 | -6.25086 | 215 ft | 12 kts | 274° |
| 2026-04-30 13:48 | 53.43229 | -6.25234 | 216 ft | 14 kts | 275° |
| 2026-04-30 13:49 | 53.43206 | -6.25396 | 215 ft | 15 kts | 247° |
| 2026-04-30 13:49 | 53.43162 | -6.25491 | 217 ft | 10 kts | 194° |
| 2026-04-30 13:49 | 53.43087 | -6.25455 | 221 ft | 15 kts | 156° |
| 2026-04-30 13:49 | 53.42965 | -6.25362 | 217 ft | 22 kts | 161° |
| 2026-04-30 13:50 | 53.42823 | -6.25264 | 213 ft | 16 kts | 156° |
| 2026-04-30 13:50 | 53.42710 | -6.25397 | 219 ft | 12 kts | 226° |
| 2026-04-30 13:50 | 53.42647 | -6.25504 | 214 ft | 15 kts | 226° |
| 2026-04-30 13:51 | 53.42570 | -6.25638 | 213 ft | 18 kts | 226° |
| 2026-04-30 13:51 | 53.42466 | -6.25812 | 215 ft | 23 kts | 225° |
| 2026-04-30 13:51 | 53.42348 | -6.26011 | 213 ft | 25 kts | 226° |
| 2026-04-30 13:51 | 53.42271 | -6.26220 | 216 ft | 22 kts | 259° |
| 2026-04-30 13:52 | 53.42278 | -6.26506 | 217 ft | 29 kts | 275° |
| 2026-04-30 13:52 | 53.42298 | -6.26869 | 213 ft | 33 kts | 275° |
| 2026-04-30 13:52 | 53.42317 | -6.27224 | 213 ft | 30 kts | 275° |
| 2026-04-30 13:52 | 53.42337 | -6.27573 | 221 ft | 31 kts | 275° |
| 2026-04-30 13:53 | 53.42357 | -6.27936 | 217 ft | 32 kts | 276° |
| 2026-04-30 13:53 | 53.42380 | -6.28316 | 221 ft | 33 kts | 276° |
| 2026-04-30 13:53 | 53.42395 | -6.28577 | 213 ft | 34 kts | 275° |
| 2026-04-30 13:53 | 53.42409 | -6.28902 | 221 ft | 23 kts | 275° |
| 2026-04-30 13:54 | 53.42369 | -6.29063 | 213 ft | 15 kts | 211° |
| 2026-04-30 13:54 | 53.42269 | -6.29067 | 212 ft | 10 kts | 174° |
| 2026-04-30 13:54 | 53.42243 | -6.28998 | 212 ft | 9 kts | 96° |
| 2026-04-30 13:54 | 53.42230 | -6.28771 | 216 ft | 46 kts | 95° |
| 2026-04-30 13:55 | 53.42176 | -6.27781 | 220 ft | 121 kts | 95° |
| 2026-04-30 13:55 | 53.42085 | -6.26120 | 468 ft | 157 kts | 95° |
| 2026-04-30 13:55 | 53.41983 | -6.24221 | 1206 ft | 172 kts | 96° |
| 2026-04-30 13:55 | 53.41885 | -6.22056 | 1835 ft | 198 kts | 98° |
| 2026-04-30 13:56 | 53.41754 | -6.19662 | 2538 ft | 211 kts | 101° |
| 2026-04-30 13:56 | 53.41617 | -6.17149 | 3320 ft | 222 kts | 102° |
| 2026-04-30 13:56 | 53.41450 | -6.14503 | 4080 ft | 233 kts | 102° |
| 2026-04-30 13:56 | 53.41283 | -6.11764 | 4972 ft | 238 kts | 101° |
| 2026-04-30 13:57 | 53.41116 | -6.08956 | 5805 ft | 246 kts | 99° |
| 2026-04-30 13:57 | 53.40965 | -6.06064 | 6674 ft | 250 kts | 99° |
| 2026-04-30 13:57 | 53.41025 | -6.03139 | 7516 ft | 257 kts | 86° |
| 2026-04-30 13:57 | 53.41379 | -6.00193 | 8466 ft | 258 kts | 86° |
| 2026-04-30 13:58 | 53.41608 | -5.97119 | 8716 ft | 270 kts | 89° |
| 2026-04-30 13:58 | 53.41905 | -5.90792 | 9081 ft | 274 kts | 91° |
| 2026-04-30 13:58 | 53.42061 | -5.87590 | 9104 ft | 275 kts | 90° |
| 2026-04-30 13:59 | 53.42228 | -5.84405 | 9079 ft | 274 kts | 90° |
| 2026-04-30 13:59 | 53.42446 | -5.81214 | 9120 ft | 276 kts | 88° |
| 2026-04-30 13:59 | 53.42682 | -5.78007 | 9707 ft | 277 kts | 88° |
| 2026-04-30 13:59 | 53.42906 | -5.74837 | 10528 ft | 282 kts | 89° |
| 2026-04-30 14:00 | 53.43139 | -5.71457 | 10932 ft | 301 kts | 89° |
| 2026-04-30 14:00 | 53.43626 | -5.64219 | 12216 ft | 317 kts | 89° |
| 2026-04-30 14:00 | 53.43872 | -5.60521 | 13017 ft | 320 kts | 90° |
| 2026-04-30 14:01 | 53.44119 | -5.56792 | 13809 ft | 324 kts | 90° |
| 2026-04-30 14:01 | 53.44368 | -5.53015 | 14536 ft | 327 kts | 90° |
| 2026-04-30 14:01 | 53.44550 | -5.49209 | 15225 ft | 326 kts | 98° |
| 2026-04-30 14:01 | 53.44417 | -5.45405 | 15892 ft | 329 kts | 99° |
| 2026-04-30 14:02 | 53.44306 | -5.41544 | 16581 ft | 332 kts | 98° |
| 2026-04-30 14:02 | 53.44207 | -5.37644 | 17252 ft | 336 kts | 98° |
| 2026-04-30 14:02 | 53.44116 | -5.33761 | 17897 ft | 340 kts | 98° |
| 2026-04-30 14:02 | 53.44028 | -5.29781 | 18524 ft | 343 kts | 98° |
| 2026-04-30 14:03 | 53.43939 | -5.25760 | 19071 ft | 346 kts | 98° |
| 2026-04-30 14:03 | 53.43851 | -5.21707 | 19617 ft | 349 kts | 98° |
| 2026-04-30 14:03 | 53.43758 | -5.17617 | 20148 ft | 352 kts | 99° |
| 2026-04-30 14:03 | 53.43631 | -5.13496 | 20657 ft | 355 kts | 99° |
| 2026-04-30 14:04 | 53.43501 | -5.09343 | 21224 ft | 357 kts | 99° |
| 2026-04-30 14:04 | 53.43370 | -5.05154 | 21756 ft | 360 kts | 99° |
| 2026-04-30 14:04 | 53.43237 | -5.00935 | 22288 ft | 363 kts | 99° |
| 2026-04-30 14:04 | 53.43102 | -4.96681 | 22819 ft | 366 kts | 99° |
| 2026-04-30 14:05 | 53.42964 | -4.92393 | 23347 ft | 370 kts | 99° |
| 2026-04-30 14:05 | 53.42824 | -4.88069 | 23846 ft | 373 kts | 99° |
| 2026-04-30 14:05 | 53.42681 | -4.83702 | 24272 ft | 376 kts | 99° |
| 2026-04-30 14:05 | 53.42536 | -4.79305 | 24689 ft | 379 kts | 99° |
| 2026-04-30 14:06 | 53.42389 | -4.74911 | 25096 ft | 383 kts | 99° |
| 2026-04-30 14:06 | 53.42083 | -4.65919 | 25916 ft | 389 kts | 99° |
| 2026-04-30 14:07 | 53.41765 | -4.56796 | 26745 ft | 394 kts | 99° |
| 2026-04-30 14:07 | 53.41602 | -4.52170 | 27134 ft | 397 kts | 99° |
| 2026-04-30 14:07 | 53.41436 | -4.47540 | 27521 ft | 400 kts | 98° |
| 2026-04-30 14:08 | 53.41096 | -4.38196 | 28284 ft | 406 kts | 98° |
| 2026-04-30 14:08 | 53.40921 | -4.33450 | 28653 ft | 409 kts | 98° |
| 2026-04-30 14:08 | 53.40560 | -4.23848 | 29379 ft | 415 kts | 98° |
| 2026-04-30 14:09 | 53.40376 | -4.19003 | 29722 ft | 418 kts | 98° |
| 2026-04-30 14:09 | 53.40187 | -4.14114 | 30067 ft | 421 kts | 98° |
| 2026-04-30 14:09 | 53.39802 | -4.04279 | 30863 ft | 420 kts | 99° |
| 2026-04-30 14:10 | 53.39608 | -3.99376 | 31137 ft | 423 kts | 99° |
| 2026-04-30 14:10 | 53.39408 | -3.94437 | 31412 ft | 426 kts | 99° |
| 2026-04-30 14:10 | 53.39206 | -3.89463 | 31719 ft | 428 kts | 99° |
| 2026-04-30 14:10 | 53.39004 | -3.84546 | 31991 ft | 430 kts | 99° |
| 2026-04-30 14:11 | 53.38795 | -3.79523 | 32265 ft | 432 kts | 99° |
| 2026-04-30 14:11 | 53.38584 | -3.74488 | 32534 ft | 434 kts | 99° |
| 2026-04-30 14:11 | 53.38370 | -3.69437 | 32819 ft | 437 kts | 99° |
| 2026-04-30 14:11 | 53.37944 | -3.64433 | 33074 ft | 431 kts | 111° |
| 2026-04-30 14:12 | 53.36855 | -3.59812 | 33424 ft | 426 kts | 116° |
| 2026-04-30 14:12 | 53.35731 | -3.55200 | 33840 ft | 424 kts | 117° |
| 2026-04-30 14:12 | 53.34601 | -3.50655 | 34318 ft | 421 kts | 117° |
| 2026-04-30 14:12 | 53.33832 | -3.47683 | 34522 ft | 420 kts | 120° |
| 2026-04-30 14:13 | 53.31576 | -3.42484 | 34905 ft | 411 kts | 134° |
| 2026-04-30 14:13 | 53.29703 | -3.38813 | 35089 ft | 415 kts | 133° |
| 2026-04-30 14:13 | 53.27822 | -3.35160 | 35349 ft | 415 kts | 134° |
| 2026-04-30 14:13 | 53.25924 | -3.31523 | 35594 ft | 416 kts | 134° |
| 2026-04-30 14:14 | 53.24033 | -3.27930 | 35832 ft | 416 kts | 134° |
| 2026-04-30 14:14 | 53.22110 | -3.24294 | 36083 ft | 417 kts | 134° |
| 2026-04-30 14:14 | 53.20213 | -3.20715 | 36321 ft | 418 kts | 134° |
| 2026-04-30 14:14 | 53.18277 | -3.17072 | 36559 ft | 418 kts | 134° |
| 2026-04-30 14:15 | 53.16337 | -3.13425 | 36790 ft | 419 kts | 134° |
| 2026-04-30 14:15 | 53.14397 | -3.09783 | 37012 ft | 419 kts | 134° |
| 2026-04-30 14:15 | 53.14062 | -3.09155 | 37045 ft | 420 kts | 134° |
| 2026-04-30 14:16 | 53.12649 | -3.06507 | 37159 ft | 420 kts | 134° |
| 2026-04-30 14:16 | 53.10703 | -3.02865 | 37191 ft | 421 kts | 134° |
| 2026-04-30 14:17 | 53.06822 | -2.95615 | 37176 ft | 418 kts | 134° |
| 2026-04-30 14:17 | 53.02940 | -2.88386 | 37179 ft | 418 kts | 134° |
| 2026-04-30 14:18 | 52.99058 | -2.81181 | 37184 ft | 418 kts | 134° |
| 2026-04-30 14:18 | 52.93244 | -2.70425 | 37183 ft | 418 kts | 134° |
| 2026-04-30 14:19 | 52.87407 | -2.59673 | 37184 ft | 418 kts | 134° |
| 2026-04-30 14:20 | 52.83507 | -2.52516 | 37181 ft | 418 kts | 134° |
| 2026-04-30 14:20 | 52.77686 | -2.41873 | 37181 ft | 415 kts | 134° |
| 2026-04-30 14:21 | 52.73808 | -2.34807 | 37185 ft | 415 kts | 134° |
| 2026-04-30 14:22 | 52.67969 | -2.24205 | 37186 ft | 416 kts | 134° |
| 2026-04-30 14:22 | 52.62128 | -2.13646 | 37183 ft | 416 kts | 134° |
| 2026-04-30 14:23 | 52.54306 | -1.99577 | 37184 ft | 416 kts | 134° |
| 2026-04-30 14:24 | 52.48425 | -1.89052 | 37179 ft | 420 kts | 134° |
| 2026-04-30 14:25 | 52.40511 | -1.74957 | 37215 ft | 420 kts | 134° |
| 2026-04-30 14:26 | 52.34524 | -1.64448 | 37206 ft | 420 kts | 135° |
| 2026-04-30 14:27 | 52.28459 | -1.54082 | 37256 ft | 420 kts | 135° |
| 2026-04-30 14:27 | 52.24438 | -1.47221 | 37252 ft | 421 kts | 135° |
| 2026-04-30 14:28 | 52.18352 | -1.36876 | 37258 ft | 421 kts | 135° |
| 2026-04-30 14:28 | 52.14292 | -1.29997 | 37255 ft | 421 kts | 135° |
| 2026-04-30 14:29 | 52.06819 | -1.17388 | 37246 ft | 421 kts | 135° |
| 2026-04-30 14:31 | 51.95609 | -0.99701 | 37206 ft | 423 kts | 139° |
| 2026-04-30 14:31 | 51.89067 | -0.90240 | 37187 ft | 420 kts | 139° |
| 2026-04-30 14:32 | 51.83242 | -0.81825 | 37196 ft | 421 kts | 139° |
| 2026-04-30 14:33 | 51.78873 | -0.75533 | 37194 ft | 421 kts | 139° |
| 2026-04-30 14:33 | 51.72287 | -0.66080 | 37182 ft | 422 kts | 139° |
| 2026-04-30 14:34 | 51.67897 | -0.59801 | 37181 ft | 422 kts | 139° |
| 2026-04-30 14:34 | 51.63577 | -0.53383 | 37164 ft | 422 kts | 130° |
| 2026-04-30 14:35 | 51.61023 | -0.44948 | 37173 ft | 427 kts | 112° |
| 2026-04-30 14:35 | 51.60025 | -0.40447 | 37171 ft | 427 kts | 111° |
| 2026-04-30 14:36 | 51.58095 | -0.31388 | 37178 ft | 428 kts | 111° |
| 2026-04-30 14:36 | 51.56198 | -0.22309 | 37181 ft | 428 kts | 111° |
| 2026-04-30 14:37 | 51.54298 | -0.13227 | 37185 ft | 429 kts | 111° |
| 2026-04-30 14:37 | 51.52395 | -0.04164 | 37240 ft | 428 kts | 111° |
| 2026-04-30 14:38 | 51.50483 | 0.04901 | 37207 ft | 427 kts | 110° |
| 2026-04-30 14:38 | 51.48572 | 0.13917 | 37210 ft | 426 kts | 110° |
| 2026-04-30 14:39 | 51.46654 | 0.22929 | 37213 ft | 426 kts | 110° |
| 2026-04-30 14:39 | 51.44733 | 0.31915 | 37212 ft | 426 kts | 110° |
| 2026-04-30 14:40 | 51.41846 | 0.45346 | 37230 ft | 426 kts | 111° |
| 2026-04-30 14:40 | 51.39906 | 0.54321 | 37228 ft | 425 kts | 110° |
| 2026-04-30 14:41 | 51.37973 | 0.63221 | 37228 ft | 424 kts | 110° |
| 2026-04-30 14:41 | 51.36025 | 0.72160 | 37229 ft | 425 kts | 111° |
| 2026-04-30 14:42 | 51.34074 | 0.81070 | 37231 ft | 424 kts | 111° |
| 2026-04-30 14:42 | 51.32113 | 0.89985 | 37222 ft | 425 kts | 111° |
| 2026-04-30 14:43 | 51.30147 | 0.98896 | 37201 ft | 424 kts | 110° |
| 2026-04-30 14:43 | 51.28375 | 1.07912 | 37217 ft | 424 kts | 105° |
| 2026-04-30 14:44 | 51.26950 | 1.17014 | 37215 ft | 425 kts | 106° |
| 2026-04-30 14:44 | 51.25463 | 1.26149 | 37217 ft | 424 kts | 106° |
| 2026-04-30 14:45 | 51.23957 | 1.35296 | 37222 ft | 425 kts | 106° |
| 2026-04-30 14:45 | 51.22461 | 1.44338 | 37214 ft | 424 kts | 106° |
| 2026-04-30 14:46 | 51.20941 | 1.53472 | 37220 ft | 426 kts | 106° |
| 2026-04-30 14:46 | 51.19414 | 1.62600 | 37219 ft | 426 kts | 106° |
| 2026-04-30 14:47 | 51.17880 | 1.71721 | 37218 ft | 426 kts | 106° |
| 2026-04-30 14:47 | 51.15946 | 1.80600 | 37210 ft | 423 kts | 120° |
| 2026-04-30 14:48 | 51.13093 | 1.88823 | 37205 ft | 424 kts | 119° |
| 2026-04-30 14:48 | 51.10281 | 1.97114 | 37212 ft | 427 kts | 119° |
| 2026-04-30 14:49 | 51.07476 | 2.05373 | 37211 ft | 426 kts | 119° |
| 2026-04-30 14:49 | 51.04653 | 2.13656 | 37213 ft | 426 kts | 119° |
| 2026-04-30 14:50 | 51.00395 | 2.26103 | 37214 ft | 426 kts | 119° |
| 2026-04-30 14:51 | 50.96134 | 2.38497 | 37217 ft | 426 kts | 119° |
| 2026-04-30 14:52 | 50.91894 | 2.50766 | 37220 ft | 424 kts | 119° |
| 2026-04-30 14:52 | 50.87613 | 2.63095 | 37222 ft | 425 kts | 119° |
| 2026-04-30 14:53 | 50.83324 | 2.75388 | 37214 ft | 426 kts | 120° |
| 2026-04-30 14:54 | 50.77612 | 2.91670 | 37216 ft | 423 kts | 120° |
| 2026-04-30 14:55 | 50.73301 | 3.03888 | 37217 ft | 423 kts | 120° |
| 2026-04-30 14:56 | 50.67561 | 3.20065 | 37216 ft | 424 kts | 120° |
| 2026-04-30 14:57 | 50.63234 | 3.32193 | 37208 ft | 422 kts | 120° |
| 2026-04-30 14:58 | 50.57442 | 3.48337 | 37216 ft | 424 kts | 120° |
| 2026-04-30 14:58 | 50.53068 | 3.60463 | 37217 ft | 424 kts | 120° |
| 2026-04-30 15:00 | 50.45771 | 3.80563 | 37220 ft | 422 kts | 119° |
| 2026-04-30 15:01 | 50.39936 | 3.96523 | 37238 ft | 423 kts | 119° |
| 2026-04-30 15:01 | 50.35544 | 4.08472 | 37238 ft | 421 kts | 120° |
| 2026-04-30 15:02 | 50.32619 | 4.16401 | 37242 ft | 424 kts | 120° |
| 2026-04-30 15:03 | 50.25224 | 4.36333 | 37239 ft | 424 kts | 120° |
| 2026-04-30 15:04 | 50.17807 | 4.56173 | 37243 ft | 424 kts | 120° |
| 2026-04-30 15:06 | 50.10379 | 4.75893 | 37246 ft | 424 kts | 120° |
| 2026-04-30 15:07 | 50.04384 | 4.91697 | 37245 ft | 424 kts | 120° |
| 2026-04-30 15:08 | 49.98891 | 5.06095 | 37243 ft | 421 kts | 120° |
| 2026-04-30 15:09 | 49.91354 | 5.25721 | 37253 ft | 422 kts | 120° |
| 2026-04-30 15:10 | 49.85297 | 5.41390 | 37257 ft | 422 kts | 120° |
| 2026-04-30 15:11 | 49.76196 | 5.64755 | 37267 ft | 420 kts | 119° |
| 2026-04-30 15:13 | 49.68557 | 5.84209 | 37269 ft | 421 kts | 120° |
| 2026-04-30 15:14 | 49.57743 | 6.11500 | 37273 ft | 427 kts | 120° |
| 2026-04-30 15:17 | 49.41559 | 6.43440 | 37257 ft | 435 kts | 147° |